createdAt,value
2018-08-20T00:01:14.158Z,100407.68
2018-08-20T00:06:18.455Z,100407.34
2018-08-20T00:11:22.109Z,100410.48
2018-08-20T00:16:25.793Z,100405.23
2018-08-20T00:21:29.501Z,100411.46
2018-08-20T00:26:33.265Z,100412.25
2018-08-20T00:31:37.384Z,100411.84
2018-08-20T00:36:41.123Z,100405.73
2018-08-20T00:41:45.433Z,100409.10
2018-08-20T00:46:49.052Z,100412.69
2018-08-20T00:51:52.646Z,100411.65
2018-08-20T00:56:56.330Z,100418.09
2018-08-20T01:02:00.010Z,100413.78
2018-08-20T01:07:03.729Z,100420.36
2018-08-20T01:12:07.374Z,100426.72
2018-08-20T01:17:11.058Z,100425.72
2018-08-20T01:22:14.770Z,100435.25
2018-08-20T01:27:32.621Z,100441.01
2018-08-20T01:32:36.209Z,100436.60
2018-08-20T01:37:40.052Z,100440.47
2018-08-20T01:42:43.686Z,100435.59
2018-08-20T01:47:47.390Z,100431.53
2018-08-20T01:52:51.057Z,100434.81
2018-08-20T01:57:54.723Z,100433.45
2018-08-20T02:03:03.805Z,100439.91
2018-08-20T02:08:07.538Z,100439.53
2018-08-20T02:13:11.214Z,100438.11
2018-08-20T02:18:14.897Z,100432.20
2018-08-20T02:23:18.594Z,100428.58
2018-08-20T02:28:22.415Z,100429.49
2018-08-20T02:33:26.184Z,100428.70
2018-08-20T02:38:30.835Z,100421.19
2018-08-20T02:43:34.509Z,100416.72
2018-08-20T02:48:38.194Z,100410.36
2018-08-20T02:53:41.859Z,100414.70
2018-08-20T02:58:45.558Z,100414.20
2018-08-20T03:03:49.406Z,100414.86
2018-08-20T03:08:52.955Z,100406.37
2018-08-20T03:13:56.741Z,100408.09
2018-08-20T03:19:00.441Z,100407.25
2018-08-20T03:24:04.778Z,100408.12
2018-08-20T03:29:08.393Z,100414.27
2018-08-20T03:34:12.043Z,100409.41
2018-08-20T03:39:15.688Z,100411.90
2018-08-20T03:44:19.962Z,100415.07
2018-08-20T03:49:23.683Z,100419.23
2018-08-20T03:54:27.394Z,100414.25
2018-08-20T03:59:37.978Z,100415.00
2018-08-20T04:04:41.671Z,100420.43
2018-08-20T04:09:45.275Z,100420.73
2018-08-20T04:14:48.918Z,100429.45
2018-08-20T04:19:53.244Z,100438.53
2018-08-20T04:24:56.906Z,100436.21
2018-08-20T04:30:00.600Z,100441.53
2018-08-20T04:35:07.401Z,100435.77
2018-08-20T04:40:11.079Z,100437.58
2018-08-20T04:45:14.782Z,100444.13
2018-08-20T04:50:18.597Z,100439.50
2018-08-20T04:55:22.080Z,100444.58
2018-08-20T05:00:25.861Z,100443.00
2018-08-20T05:05:29.501Z,100442.77
2018-08-20T05:10:33.162Z,100445.25
2018-08-20T05:15:36.845Z,100443.26
2018-08-20T05:20:40.608Z,100448.03
2018-08-20T05:25:44.325Z,100450.86
2018-08-20T05:30:48.060Z,100461.84
2018-08-20T05:35:51.703Z,100462.46
2018-08-20T05:40:55.442Z,100469.06
2018-08-20T05:45:59.028Z,100468.31
2018-08-20T05:51:02.738Z,100485.44
2018-08-20T05:56:06.663Z,100490.33
2018-08-20T06:01:10.393Z,100500.83
2018-08-20T06:06:14.115Z,100504.97
2018-08-20T06:11:17.745Z,100512.23
2018-08-20T06:16:22.399Z,100514.66
2018-08-20T06:21:26.102Z,100516.13
2018-08-20T06:26:29.931Z,100520.73
2018-08-20T06:31:33.687Z,100516.09
2018-08-20T06:36:37.383Z,100514.98
2018-08-20T06:41:41.146Z,100520.86
2018-08-20T06:46:44.838Z,100528.44
2018-08-20T06:51:48.574Z,100541.63
2018-08-20T06:56:52.255Z,100542.13
2018-08-20T07:01:55.891Z,100549.57
2018-08-20T07:06:59.644Z,100555.81
2018-08-20T07:12:03.381Z,100548.59
2018-08-20T07:17:07.150Z,100545.46
2018-08-20T07:22:10.814Z,100549.14
2018-08-20T07:27:14.507Z,100547.30
2018-08-20T07:32:18.370Z,100558.81
2018-08-20T07:37:22.936Z,100554.15
2018-08-20T07:42:26.582Z,100546.02
2018-08-20T07:47:30.264Z,100556.52
2018-08-20T07:52:33.904Z,100560.67
2018-08-20T07:57:37.586Z,100557.72
2018-08-20T08:02:41.319Z,100555.96
2018-08-20T08:07:45.141Z,100552.76
2018-08-20T08:12:48.804Z,100559.49
2018-08-20T08:17:52.538Z,100550.61
2018-08-20T08:22:56.217Z,100549.14
2018-08-20T08:27:59.894Z,100543.19
2018-08-20T08:33:04.218Z,100555.37
2018-08-20T08:38:08.047Z,100541.09
2018-08-20T08:43:11.675Z,100535.70
2018-08-20T08:48:15.406Z,100537.43
2018-08-20T08:53:19.149Z,100525.55
2018-08-20T08:58:22.772Z,100536.47
2018-08-20T09:03:28.486Z,100524.73
2018-08-20T09:08:32.352Z,100523.12
2018-08-20T09:13:35.989Z,100525.48
2018-08-20T09:18:39.738Z,100518.91
2018-08-20T09:23:43.548Z,100529.73
2018-08-20T09:28:47.289Z,100533.34
2018-08-20T09:33:50.975Z,100526.31
2018-08-20T09:38:54.646Z,100534.47
2018-08-20T09:43:58.383Z,100534.33
2018-08-20T09:49:02.878Z,100539.27
2018-08-20T09:54:06.633Z,100542.30
2018-08-20T09:59:10.335Z,100533.56
2018-08-20T10:04:13.985Z,100545.02
2018-08-20T10:09:17.747Z,100544.66
2018-08-20T10:14:21.554Z,100545.81
2018-08-20T10:19:25.196Z,100549.95
2018-08-20T10:24:28.897Z,100542.53
2018-08-20T10:29:32.559Z,100553.27
2018-08-20T10:34:36.170Z,100553.72
2018-08-20T10:39:39.853Z,100550.70
2018-08-20T10:44:49.034Z,100542.02
2018-08-20T10:49:52.706Z,100553.80
2018-08-20T10:54:56.593Z,100552.95
2018-08-20T11:00:00.987Z,100561.97
2018-08-20T11:05:05.405Z,100565.20
2018-08-20T11:10:09.105Z,100552.16
2018-08-20T11:15:13.153Z,100551.66
2018-08-20T11:20:17.562Z,100554.72
2018-08-20T11:25:21.294Z,100552.06
2018-08-20T11:30:24.997Z,100544.98
2018-08-20T11:35:28.668Z,100533.55
2018-08-20T11:40:32.341Z,100530.94
2018-08-20T11:45:36.067Z,100529.74
2018-08-20T11:50:39.748Z,100523.20
2018-08-20T11:55:43.433Z,100523.40
2018-08-20T12:00:47.139Z,100518.70
2018-08-20T12:05:50.858Z,100514.39
2018-08-20T12:16:18.643Z,100510.54
2018-08-20T12:21:22.342Z,100515.41
2018-08-20T12:26:26.001Z,100515.64
2018-08-20T12:31:29.822Z,100513.56
2018-08-20T12:36:33.573Z,100508.74
2018-08-20T12:41:37.262Z,100512.20
2018-08-20T12:46:40.964Z,100512.27
2018-08-20T12:51:44.658Z,100517.17
2018-08-20T12:56:48.294Z,100516.81
2018-08-20T13:01:52.566Z,100510.83
2018-08-20T13:06:56.693Z,100518.34
2018-08-20T13:12:00.432Z,100516.49
2018-08-20T13:17:04.118Z,100521.34
2018-08-20T13:22:08.926Z,100511.00
2018-08-20T13:27:14.989Z,100512.85
2018-08-20T13:32:18.863Z,100507.80
2018-08-20T13:37:24.914Z,100512.06
2018-08-20T13:42:28.707Z,100500.95
2018-08-20T13:47:32.542Z,100508.36
2018-08-20T13:52:36.271Z,100498.55
2018-08-20T13:57:48.527Z,100502.45
2018-08-20T14:02:52.466Z,100498.75
2018-08-20T14:07:56.192Z,100502.66
2018-08-20T14:13:00.324Z,100502.89
2018-08-20T14:18:04.161Z,100496.26
2018-08-20T14:23:09.805Z,100500.69
2018-08-20T14:28:15.425Z,100492.79
2018-08-20T14:33:19.499Z,100498.05
2018-08-20T14:38:23.772Z,100491.14
2018-08-20T14:43:28.301Z,100494.39
2018-08-20T14:48:32.599Z,100497.17
2018-08-20T14:53:36.651Z,100498.93
2018-08-20T14:58:41.547Z,100509.73
2018-08-20T15:03:45.867Z,100505.06
2018-08-20T15:08:55.053Z,100505.11
2018-08-20T15:13:58.964Z,100506.55
2018-08-20T15:19:03.878Z,100493.95
2018-08-20T15:24:07.642Z,100502.84
2018-08-20T15:29:11.464Z,100503.84
2018-08-20T15:34:15.321Z,100501.34
2018-08-20T15:39:19.422Z,100501.34
2018-08-20T15:44:23.129Z,100510.34
2018-08-20T15:49:26.934Z,100503.16
2018-08-20T15:54:30.649Z,100500.31
2018-08-20T15:59:34.369Z,100503.41
2018-08-20T16:04:38.157Z,100503.38
2018-08-20T16:09:41.917Z,100503.48
2018-08-20T16:14:45.614Z,100496.34
2018-08-20T16:19:49.277Z,100498.73
2018-08-20T16:24:52.942Z,100499.20
2018-08-20T16:29:56.984Z,100505.14
2018-08-20T16:40:09.621Z,100494.56
2018-08-20T16:45:22.185Z,100501.98
2018-08-20T16:50:30.956Z,100497.11
2018-08-20T16:55:46.495Z,100502.02
2018-08-20T17:00:54.296Z,100500.05
2018-08-20T17:05:59.649Z,100496.95
2018-08-20T17:11:08.541Z,100502.68
2018-08-20T17:16:15.156Z,100507.66
2018-08-20T17:21:19.133Z,100504.11
2018-08-20T17:26:22.798Z,100511.91
2018-08-20T17:31:26.582Z,100505.84
2018-08-20T17:36:30.393Z,100515.20
2018-08-20T17:41:34.160Z,100513.72
2018-08-20T17:46:38.114Z,100516.02
2018-08-20T17:51:41.914Z,100528.30
2018-08-20T17:56:52.199Z,100523.73
2018-08-20T18:01:55.894Z,100523.03
2018-08-20T18:06:59.656Z,100524.58
2018-08-20T18:12:06.958Z,100526.52
2018-08-20T18:17:10.901Z,100531.81
2018-08-20T18:22:14.627Z,100534.47
2018-08-20T18:27:18.362Z,100545.88
2018-08-20T18:32:21.992Z,100541.86
2018-08-20T18:37:25.635Z,100536.48
2018-08-20T18:42:34.673Z,100541.66
2018-08-20T18:47:38.348Z,100549.25
2018-08-20T18:52:42.266Z,100557.36
2018-08-20T18:57:45.987Z,100552.32
2018-08-20T19:02:52.370Z,100566.31
2018-08-20T19:07:56.888Z,100563.31
2018-08-20T19:13:01.718Z,100569.34
2018-08-20T19:18:06.588Z,100570.98
2018-08-20T19:23:10.425Z,100574.48
2018-08-20T19:28:15.531Z,100573.34
2018-08-20T19:33:26.137Z,100575.83
2018-08-20T19:38:30.009Z,100573.66
2018-08-20T19:43:38.966Z,100571.25
2018-08-20T19:48:42.708Z,100574.58
2018-08-20T19:53:46.508Z,100572.73
2018-08-20T19:58:50.231Z,100575.42
2018-08-20T20:03:54.570Z,100571.88
2018-08-20T20:08:58.576Z,100582.31
2018-08-20T20:14:03.632Z,100583.81
2018-08-20T20:19:07.323Z,100573.93
2018-08-20T20:24:12.608Z,100580.69
2018-08-20T20:29:16.533Z,100588.23
2018-08-20T20:34:20.873Z,100591.33
2018-08-20T20:39:24.631Z,100594.58
2018-08-20T20:44:28.443Z,100593.13
2018-08-20T20:49:32.101Z,100602.03
2018-08-20T20:54:35.907Z,100593.92
2018-08-20T20:59:39.948Z,100605.67
2018-08-20T21:04:43.478Z,100606.11
2018-08-20T21:09:48.134Z,100606.41
2018-08-20T21:14:51.893Z,100601.97
2018-08-20T21:19:55.564Z,100613.91
2018-08-20T21:24:59.356Z,100616.41
2018-08-20T21:30:05.058Z,100615.08
2018-08-20T21:35:08.831Z,100626.73
2018-08-20T21:40:16.580Z,100620.69
2018-08-20T21:45:20.230Z,100632.00
2018-08-20T21:50:23.941Z,100625.73
2018-08-20T21:55:27.629Z,100631.14
2018-08-20T22:00:31.353Z,100633.98
2018-08-20T22:05:35.260Z,100641.25
2018-08-20T22:10:39.357Z,100642.10
2018-08-20T22:15:43.393Z,100639.06
2018-08-20T22:20:47.230Z,100643.80
2018-08-20T22:25:55.184Z,100645.75
2018-08-20T22:30:58.911Z,100647.52
2018-08-20T22:36:02.631Z,100647.95
2018-08-20T22:41:06.346Z,100652.06
2018-08-20T22:46:10.506Z,100659.83
2018-08-20T22:51:17.509Z,100653.78
2018-08-20T22:56:23.562Z,100659.04
2018-08-20T23:01:27.384Z,100657.07
2018-08-20T23:06:31.354Z,100659.18
2018-08-20T23:11:43.057Z,100664.59
2018-08-20T23:16:50.401Z,100660.98
2018-08-20T23:21:54.308Z,100669.36
2018-08-20T23:26:57.974Z,100668.95
2018-08-20T23:32:01.652Z,100677.77
2018-08-20T23:37:05.403Z,100679.27
2018-08-20T23:42:09.353Z,100680.91
2018-08-20T23:47:13.081Z,100686.38
2018-08-20T23:52:16.809Z,100688.28
2018-08-20T23:57:20.441Z,100699.34
